sensor_id;sensor_type;location;lat;lon;timestamp;P1;durP1;ratioP1;P2;durP2;ratioP2
36213;SDS011;37652;50.400;30.628;2023-03-23T00:00:54;42.50;;;29.70;;
36213;SDS011;37652;50.400;30.628;2023-03-23T00:02:55;44.00;;;28.23;;
36213;SDS011;37652;50.400;30.628;2023-03-23T00:04:56;46.90;;;31.00;;
36213;SDS011;37652;50.400;30.628;2023-03-23T00:06:57;44.97;;;29.23;;
36213;SDS011;37652;50.400;30.628;2023-03-23T00:09:00;42.00;;;29.35;;
36213;SDS011;37652;50.400;30.628;2023-03-23T00:11:04;43.63;;;28.92;;
36213;SDS011;37652;50.400;30.628;2023-03-23T00:13:05;45.33;;;29.85;;
36213;SDS011;37652;50.400;30.628;2023-03-23T00:15:06;45.70;;;30.52;;
36213;SDS011;37652;50.400;30.628;2023-03-23T00:17:09;51.05;;;31.45;;
36213;SDS011;37652;50.400;30.628;2023-03-23T00:19:11;45.22;;;29.48;;
36213;SDS011;37652;50.400;30.628;2023-03-23T00:21:14;43.42;;;28.20;;
36213;SDS011;37652;50.400;30.628;2023-03-23T00:23:16;41.83;;;28.60;;
36213;SDS011;37652;50.400;30.628;2023-03-23T00:25:18;44.92;;;29.92;;
36213;SDS011;37652;50.400;30.628;2023-03-23T00:27:19;45.40;;;31.13;;
36213;SDS011;37652;50.400;30.628;2023-03-23T00:29:22;43.65;;;29.60;;
36213;SDS011;37652;50.400;30.628;2023-03-23T00:31:22;39.40;;;26.52;;
36213;SDS011;37652;50.400;30.628;2023-03-23T00:33:24;42.72;;;29.40;;
36213;SDS011;37652;50.400;30.628;2023-03-23T00:35:27;43.53;;;30.45;;
36213;SDS011;37652;50.400;30.628;2023-03-23T00:37:28;47.33;;;31.33;;
36213;SDS011;37652;50.400;30.628;2023-03-23T00:39:28;45.70;;;32.65;;
36213;SDS011;37652;50.400;30.628;2023-03-23T00:41:30;45.92;;;31.25;;
36213;SDS011;37652;50.400;30.628;2023-03-23T00:43:32;45.95;;;32.67;;
36213;SDS011;37652;50.400;30.628;2023-03-23T00:45:36;52.28;;;33.95;;
36213;SDS011;37652;50.400;30.628;2023-03-23T00:47:37;47.00;;;33.28;;
36213;SDS011;37652;50.400;30.628;2023-03-23T00:49:38;49.53;;;32.97;;
36213;SDS011;37652;50.400;30.628;2023-03-23T00:51:39;49.42;;;33.17;;
36213;SDS011;37652;50.400;30.628;2023-03-23T00:53:41;55.40;;;35.38;;
36213;SDS011;37652;50.400;30.628;2023-03-23T00:55:42;54.20;;;36.97;;
36213;SDS011;37652;50.400;30.628;2023-03-23T00:57:44;51.80;;;34.28;;
36213;SDS011;37652;50.400;30.628;2023-03-23T00:59:45;53.35;;;35.33;;
36213;SDS011;37652;50.400;30.628;2023-03-23T01:01:46;48.83;;;34.58;;
36213;SDS011;37652;50.400;30.628;2023-03-23T01:03:47;46.70;;;33.90;;
36213;SDS011;37652;50.400;30.628;2023-03-23T01:05:49;49.15;;;34.10;;
36213;SDS011;37652;50.400;30.628;2023-03-23T01:07:51;50.25;;;33.95;;
36213;SDS011;37652;50.400;30.628;2023-03-23T01:09:52;54.65;;;36.40;;
36213;SDS011;37652;50.400;30.628;2023-03-23T01:11:54;54.88;;;36.13;;
36213;SDS011;37652;50.400;30.628;2023-03-23T01:13:55;55.50;;;36.08;;
36213;SDS011;37652;50.400;30.628;2023-03-23T01:15:56;50.15;;;35.70;;
36213;SDS011;37652;50.400;30.628;2023-03-23T01:17:57;50.45;;;33.95;;
36213;SDS011;37652;50.400;30.628;2023-03-23T01:19:58;48.20;;;33.22;;
36213;SDS011;37652;50.400;30.628;2023-03-23T01:21:59;46.88;;;35.08;;
36213;SDS011;37652;50.400;30.628;2023-03-23T01:24:00;50.10;;;34.08;;
36213;SDS011;37652;50.400;30.628;2023-03-23T01:26:07;52.45;;;34.83;;
36213;SDS011;37652;50.400;30.628;2023-03-23T01:28:10;53.83;;;36.20;;
36213;SDS011;37652;50.400;30.628;2023-03-23T01:30:11;55.95;;;36.55;;
36213;SDS011;37652;50.400;30.628;2023-03-23T01:34:13;50.33;;;35.73;;
36213;SDS011;37652;50.400;30.628;2023-03-23T01:36:15;51.15;;;34.15;;
36213;SDS011;37652;50.400;30.628;2023-03-23T01:38:17;59.05;;;38.60;;
36213;SDS011;37652;50.400;30.628;2023-03-23T01:40:18;56.28;;;37.20;;
36213;SDS011;37652;50.400;30.628;2023-03-23T01:42:21;56.20;;;39.17;;
36213;SDS011;37652;50.400;30.628;2023-03-23T01:46:28;58.78;;;39.35;;
36213;SDS011;37652;50.400;30.628;2023-03-23T01:50:54;58.00;;;38.92;;
36213;SDS011;37652;50.400;30.628;2023-03-23T01:52:56;60.22;;;39.97;;
36213;SDS011;37652;50.400;30.628;2023-03-23T01:54:59;60.35;;;42.90;;
36213;SDS011;37652;50.400;30.628;2023-03-23T01:57:04;60.95;;;42.13;;
36213;SDS011;37652;50.400;30.628;2023-03-23T01:59:11;55.78;;;39.80;;
36213;SDS011;37652;50.400;30.628;2023-03-23T02:01:13;63.47;;;44.67;;
36213;SDS011;37652;50.400;30.628;2023-03-23T02:03:15;60.60;;;41.95;;
36213;SDS011;37652;50.400;30.628;2023-03-23T02:05:19;67.68;;;44.65;;
36213;SDS011;37652;50.400;30.628;2023-03-23T02:07:33;64.25;;;45.20;;
36213;SDS011;37652;50.400;30.628;2023-03-23T02:09:34;64.93;;;45.33;;
36213;SDS011;37652;50.400;30.628;2023-03-23T02:11:35;64.45;;;46.33;;
36213;SDS011;37652;50.400;30.628;2023-03-23T02:13:35;61.85;;;43.33;;
36213;SDS011;37652;50.400;30.628;2023-03-23T02:15:41;63.47;;;42.03;;
36213;SDS011;37652;50.400;30.628;2023-03-23T02:20:56;58.05;;;39.92;;
36213;SDS011;37652;50.400;30.628;2023-03-23T02:25:29;56.45;;;39.00;;
36213;SDS011;37652;50.400;30.628;2023-03-23T02:34:56;59.47;;;39.58;;
36213;SDS011;37652;50.400;30.628;2023-03-23T02:37:01;63.97;;;42.83;;
36213;SDS011;37652;50.400;30.628;2023-03-23T02:39:08;67.28;;;41.83;;
36213;SDS011;37652;50.400;30.628;2023-03-23T02:41:18;55.22;;;40.20;;
36213;SDS011;37652;50.400;30.628;2023-03-23T02:43:22;57.58;;;40.45;;
36213;SDS011;37652;50.400;30.628;2023-03-23T02:45:25;60.85;;;41.35;;
36213;SDS011;37652;50.400;30.628;2023-03-23T02:47:30;57.08;;;41.53;;
36213;SDS011;37652;50.400;30.628;2023-03-23T02:49:32;53.03;;;40.90;;
36213;SDS011;37652;50.400;30.628;2023-03-23T02:51:36;56.65;;;40.67;;
36213;SDS011;37652;50.400;30.628;2023-03-23T02:53:39;59.13;;;43.67;;
36213;SDS011;37652;50.400;30.628;2023-03-23T02:55:42;53.45;;;40.75;;
36213;SDS011;37652;50.400;30.628;2023-03-23T02:57:44;54.90;;;38.80;;
36213;SDS011;37652;50.400;30.628;2023-03-23T02:59:46;51.67;;;36.70;;
36213;SDS011;37652;50.400;30.628;2023-03-23T03:01:57;53.30;;;38.78;;
36213;SDS011;37652;50.400;30.628;2023-03-23T03:04:06;52.45;;;38.33;;
36213;SDS011;37652;50.400;30.628;2023-03-23T03:11:18;50.60;;;38.25;;
36213;SDS011;37652;50.400;30.628;2023-03-23T03:15:55;52.05;;;38.50;;
36213;SDS011;37652;50.400;30.628;2023-03-23T03:18:03;56.70;;;39.08;;
36213;SDS011;37652;50.400;30.628;2023-03-23T03:20:14;55.55;;;37.47;;
36213;SDS011;37652;50.400;30.628;2023-03-23T03:22:17;54.25;;;38.22;;
36213;SDS011;37652;50.400;30.628;2023-03-23T03:24:21;55.50;;;38.92;;
36213;SDS011;37652;50.400;30.628;2023-03-23T03:26:24;49.58;;;36.42;;
36213;SDS011;37652;50.400;30.628;2023-03-23T03:28:27;53.53;;;38.15;;
36213;SDS011;37652;50.400;30.628;2023-03-23T03:32:34;48.80;;;36.28;;
36213;SDS011;37652;50.400;30.628;2023-03-23T03:34:40;51.72;;;36.50;;
36213;SDS011;37652;50.400;30.628;2023-03-23T03:36:41;51.63;;;37.47;;
36213;SDS011;37652;50.400;30.628;2023-03-23T03:38:46;46.83;;;35.35;;
36213;SDS011;37652;50.400;30.628;2023-03-23T03:40:49;47.97;;;34.80;;
36213;SDS011;37652;50.400;30.628;2023-03-23T03:42:50;45.15;;;36.40;;
36213;SDS011;37652;50.400;30.628;2023-03-23T03:44:51;48.28;;;36.15;;
36213;SDS011;37652;50.400;30.628;2023-03-23T03:46:52;48.90;;;36.75;;
36213;SDS011;37652;50.400;30.628;2023-03-23T03:48:52;47.50;;;36.05;;
36213;SDS011;37652;50.400;30.628;2023-03-23T03:50:53;52.28;;;36.47;;
36213;SDS011;37652;50.400;30.628;2023-03-23T03:52:56;46.40;;;35.65;;
36213;SDS011;37652;50.400;30.628;2023-03-23T03:56:58;48.03;;;36.20;;
36213;SDS011;37652;50.400;30.628;2023-03-23T03:58:59;49.72;;;38.00;;
36213;SDS011;37652;50.400;30.628;2023-03-23T04:01:00;49.50;;;36.47;;
36213;SDS011;37652;50.400;30.628;2023-03-23T04:03:02;49.60;;;37.47;;
36213;SDS011;37652;50.400;30.628;2023-03-23T04:05:03;51.90;;;36.70;;
36213;SDS011;37652;50.400;30.628;2023-03-23T04:07:04;50.40;;;36.45;;
36213;SDS011;37652;50.400;30.628;2023-03-23T04:09:05;51.95;;;37.10;;
36213;SDS011;37652;50.400;30.628;2023-03-23T04:11:10;48.97;;;36.15;;
36213;SDS011;37652;50.400;30.628;2023-03-23T04:13:13;52.03;;;37.63;;
36213;SDS011;37652;50.400;30.628;2023-03-23T04:15:15;54.95;;;38.47;;
36213;SDS011;37652;50.400;30.628;2023-03-23T04:17:16;52.55;;;37.70;;
36213;SDS011;37652;50.400;30.628;2023-03-23T04:19:17;51.22;;;38.97;;
36213;SDS011;37652;50.400;30.628;2023-03-23T04:21:18;49.45;;;36.95;;
36213;SDS011;37652;50.400;30.628;2023-03-23T04:23:19;52.58;;;37.10;;
36213;SDS011;37652;50.400;30.628;2023-03-23T04:25:21;54.78;;;37.97;;
36213;SDS011;37652;50.400;30.628;2023-03-23T04:27:22;48.97;;;36.70;;
36213;SDS011;37652;50.400;30.628;2023-03-23T04:29:24;50.35;;;36.13;;
36213;SDS011;37652;50.400;30.628;2023-03-23T04:31:25;49.53;;;37.58;;
36213;SDS011;37652;50.400;30.628;2023-03-23T04:33:27;52.03;;;36.72;;
36213;SDS011;37652;50.400;30.628;2023-03-23T04:35:30;51.08;;;35.60;;
36213;SDS011;37652;50.400;30.628;2023-03-23T04:37:30;45.55;;;34.88;;
36213;SDS011;37652;50.400;30.628;2023-03-23T04:39:34;46.50;;;35.17;;
36213;SDS011;37652;50.400;30.628;2023-03-23T04:41:38;51.00;;;36.25;;
36213;SDS011;37652;50.400;30.628;2023-03-23T04:43:39;51.80;;;38.88;;
36213;SDS011;37652;50.400;30.628;2023-03-23T04:45:42;46.70;;;36.10;;
36213;SDS011;37652;50.400;30.628;2023-03-23T04:47:45;47.95;;;36.20;;
36213;SDS011;37652;50.400;30.628;2023-03-23T04:49:52;50.83;;;38.15;;
36213;SDS011;37652;50.400;30.628;2023-03-23T04:51:53;56.72;;;38.90;;
36213;SDS011;37652;50.400;30.628;2023-03-23T04:53:54;51.85;;;37.35;;
36213;SDS011;37652;50.400;30.628;2023-03-23T04:55:55;48.05;;;36.42;;
36213;SDS011;37652;50.400;30.628;2023-03-23T04:57:56;47.25;;;35.72;;
36213;SDS011;37652;50.400;30.628;2023-03-23T05:00:02;43.92;;;34.42;;
36213;SDS011;37652;50.400;30.628;2023-03-23T05:02:11;43.85;;;35.25;;
36213;SDS011;37652;50.400;30.628;2023-03-23T05:04:16;44.17;;;34.22;;
36213;SDS011;37652;50.400;30.628;2023-03-23T05:06:16;47.38;;;35.28;;
36213;SDS011;37652;50.400;30.628;2023-03-23T05:08:18;47.25;;;34.33;;
36213;SDS011;37652;50.400;30.628;2023-03-23T05:10:20;51.17;;;35.88;;
36213;SDS011;37652;50.400;30.628;2023-03-23T05:12:21;43.97;;;35.13;;
36213;SDS011;37652;50.400;30.628;2023-03-23T05:14:22;47.50;;;36.28;;
36213;SDS011;37652;50.400;30.628;2023-03-23T05:16:23;47.15;;;35.47;;
36213;SDS011;37652;50.400;30.628;2023-03-23T05:18:24;43.60;;;33.38;;
36213;SDS011;37652;50.400;30.628;2023-03-23T05:20:26;42.97;;;33.42;;
36213;SDS011;37652;50.400;30.628;2023-03-23T05:22:27;49.65;;;35.28;;
36213;SDS011;37652;50.400;30.628;2023-03-23T05:24:31;45.08;;;33.95;;
36213;SDS011;37652;50.400;30.628;2023-03-23T05:26:32;45.67;;;33.03;;
36213;SDS011;37652;50.400;30.628;2023-03-23T05:28:33;42.83;;;32.22;;
36213;SDS011;37652;50.400;30.628;2023-03-23T05:30:36;44.70;;;33.35;;
36213;SDS011;37652;50.400;30.628;2023-03-23T05:32:38;45.60;;;31.85;;
36213;SDS011;37652;50.400;30.628;2023-03-23T05:36:40;45.73;;;35.07;;
36213;SDS011;37652;50.400;30.628;2023-03-23T05:38:41;47.22;;;35.47;;
36213;SDS011;37652;50.400;30.628;2023-03-23T05:40:45;45.70;;;35.38;;
36213;SDS011;37652;50.400;30.628;2023-03-23T05:42:47;55.33;;;37.97;;
36213;SDS011;37652;50.400;30.628;2023-03-23T05:44:48;53.72;;;39.72;;
36213;SDS011;37652;50.400;30.628;2023-03-23T05:48:49;50.33;;;36.93;;
36213;SDS011;37652;50.400;30.628;2023-03-23T05:50:50;49.15;;;34.97;;
36213;SDS011;37652;50.400;30.628;2023-03-23T05:52:52;43.30;;;33.00;;
36213;SDS011;37652;50.400;30.628;2023-03-23T05:54:52;46.03;;;34.08;;
36213;SDS011;37652;50.400;30.628;2023-03-23T05:56:53;42.72;;;32.65;;
36213;SDS011;37652;50.400;30.628;2023-03-23T05:58:54;44.58;;;33.28;;
36213;SDS011;37652;50.400;30.628;2023-03-23T06:00:55;42.33;;;31.38;;
36213;SDS011;37652;50.400;30.628;2023-03-23T06:02:56;45.63;;;33.55;;
36213;SDS011;37652;50.400;30.628;2023-03-23T06:04:57;42.03;;;31.52;;
36213;SDS011;37652;50.400;30.628;2023-03-23T06:07:01;41.03;;;31.33;;
36213;SDS011;37652;50.400;30.628;2023-03-23T06:09:02;42.25;;;32.08;;
36213;SDS011;37652;50.400;30.628;2023-03-23T06:11:03;42.45;;;31.08;;
36213;SDS011;37652;50.400;30.628;2023-03-23T06:13:04;42.90;;;32.53;;
36213;SDS011;37652;50.400;30.628;2023-03-23T06:15:05;40.85;;;30.75;;
36213;SDS011;37652;50.400;30.628;2023-03-23T06:17:07;41.90;;;32.13;;
36213;SDS011;37652;50.400;30.628;2023-03-23T06:19:08;42.42;;;32.60;;
36213;SDS011;37652;50.400;30.628;2023-03-23T06:21:09;49.38;;;33.17;;
36213;SDS011;37652;50.400;30.628;2023-03-23T06:23:11;39.00;;;30.88;;
36213;SDS011;37652;50.400;30.628;2023-03-23T06:25:11;42.53;;;30.73;;
36213;SDS011;37652;50.400;30.628;2023-03-23T06:27:12;41.67;;;31.40;;
36213;SDS011;37652;50.400;30.628;2023-03-23T06:29:13;44.60;;;31.33;;
36213;SDS011;37652;50.400;30.628;2023-03-23T06:31:14;41.92;;;31.15;;
36213;SDS011;37652;50.400;30.628;2023-03-23T06:33:16;39.17;;;29.50;;
36213;SDS011;37652;50.400;30.628;2023-03-23T06:35:17;36.03;;;28.60;;
36213;SDS011;37652;50.400;30.628;2023-03-23T06:37:18;38.10;;;28.45;;
36213;SDS011;37652;50.400;30.628;2023-03-23T06:39:19;41.33;;;29.30;;
36213;SDS011;37652;50.400;30.628;2023-03-23T06:41:20;37.95;;;28.77;;
36213;SDS011;37652;50.400;30.628;2023-03-23T06:43:21;40.55;;;30.33;;
36213;SDS011;37652;50.400;30.628;2023-03-23T06:45:22;42.05;;;28.80;;
36213;SDS011;37652;50.400;30.628;2023-03-23T06:47:23;39.05;;;28.33;;
36213;SDS011;37652;50.400;30.628;2023-03-23T06:51:25;39.23;;;29.03;;
36213;SDS011;37652;50.400;30.628;2023-03-23T06:53:26;43.38;;;29.95;;
36213;SDS011;37652;50.400;30.628;2023-03-23T06:55:26;40.50;;;29.67;;
36213;SDS011;37652;50.400;30.628;2023-03-23T06:57:27;40.45;;;31.75;;
36213;SDS011;37652;50.400;30.628;2023-03-23T06:59:28;42.28;;;31.13;;
36213;SDS011;37652;50.400;30.628;2023-03-23T07:01:29;43.75;;;31.40;;
36213;SDS011;37652;50.400;30.628;2023-03-23T07:03:30;40.03;;;29.70;;
36213;SDS011;37652;50.400;30.628;2023-03-23T07:05:32;35.13;;;27.70;;
36213;SDS011;37652;50.400;30.628;2023-03-23T07:07:34;41.08;;;30.17;;
36213;SDS011;37652;50.400;30.628;2023-03-23T07:09:35;42.03;;;29.80;;
36213;SDS011;37652;50.400;30.628;2023-03-23T07:11:37;34.25;;;27.60;;
36213;SDS011;37652;50.400;30.628;2023-03-23T07:13:38;40.00;;;29.83;;
36213;SDS011;37652;50.400;30.628;2023-03-23T07:15:39;39.40;;;28.73;;
36213;SDS011;37652;50.400;30.628;2023-03-23T07:17:40;38.85;;;28.92;;
36213;SDS011;37652;50.400;30.628;2023-03-23T07:19:41;34.53;;;26.55;;
36213;SDS011;37652;50.400;30.628;2023-03-23T07:21:41;36.05;;;26.77;;
36213;SDS011;37652;50.400;30.628;2023-03-23T07:23:42;37.03;;;27.35;;
36213;SDS011;37652;50.400;30.628;2023-03-23T07:25:43;31.90;;;25.98;;
36213;SDS011;37652;50.400;30.628;2023-03-23T07:27:45;33.28;;;25.95;;
36213;SDS011;37652;50.400;30.628;2023-03-23T07:29:46;35.75;;;27.00;;
36213;SDS011;37652;50.400;30.628;2023-03-23T07:31:47;42.17;;;28.15;;
36213;SDS011;37652;50.400;30.628;2023-03-23T07:33:48;36.13;;;27.10;;
36213;SDS011;37652;50.400;30.628;2023-03-23T07:35:48;36.20;;;27.00;;
36213;SDS011;37652;50.400;30.628;2023-03-23T07:37:49;36.03;;;27.05;;
36213;SDS011;37652;50.400;30.628;2023-03-23T07:39:51;37.22;;;27.67;;
36213;SDS011;37652;50.400;30.628;2023-03-23T07:41:52;34.90;;;27.35;;
36213;SDS011;37652;50.400;30.628;2023-03-23T07:43:53;38.90;;;26.85;;
36213;SDS011;37652;50.400;30.628;2023-03-23T07:45:53;33.25;;;25.50;;
36213;SDS011;37652;50.400;30.628;2023-03-23T07:47:54;32.50;;;25.13;;
36213;SDS011;37652;50.400;30.628;2023-03-23T07:51:56;31.97;;;24.93;;
36213;SDS011;37652;50.400;30.628;2023-03-23T07:53:57;35.75;;;25.85;;
36213;SDS011;37652;50.400;30.628;2023-03-23T07:55:58;33.50;;;24.45;;
36213;SDS011;37652;50.400;30.628;2023-03-23T07:58:00;34.72;;;25.52;;
36213;SDS011;37652;50.400;30.628;2023-03-23T08:00:01;36.22;;;25.33;;
36213;SDS011;37652;50.400;30.628;2023-03-23T08:02:18;31.70;;;23.90;;
36213;SDS011;37652;50.400;30.628;2023-03-23T08:04:19;37.03;;;25.83;;
36213;SDS011;37652;50.400;30.628;2023-03-23T08:06:20;35.70;;;24.55;;
36213;SDS011;37652;50.400;30.628;2023-03-23T08:08:21;31.58;;;24.13;;
36213;SDS011;37652;50.400;30.628;2023-03-23T08:10:23;31.50;;;23.80;;
36213;SDS011;37652;50.400;30.628;2023-03-23T08:14:25;28.08;;;22.92;;
36213;SDS011;37652;50.400;30.628;2023-03-23T08:16:27;28.58;;;23.70;;
36213;SDS011;37652;50.400;30.628;2023-03-23T08:18:28;28.33;;;22.23;;
36213;SDS011;37652;50.400;30.628;2023-03-23T08:20:29;36.70;;;25.02;;
36213;SDS011;37652;50.400;30.628;2023-03-23T08:22:30;29.98;;;23.48;;
36213;SDS011;37652;50.400;30.628;2023-03-23T08:24:31;30.98;;;23.55;;
36213;SDS011;37652;50.400;30.628;2023-03-23T08:26:32;29.25;;;21.90;;
36213;SDS011;37652;50.400;30.628;2023-03-23T08:28:33;32.17;;;22.98;;
36213;SDS011;37652;50.400;30.628;2023-03-23T08:30:35;28.58;;;22.33;;
36213;SDS011;37652;50.400;30.628;2023-03-23T08:32:38;30.60;;;22.40;;
36213;SDS011;37652;50.400;30.628;2023-03-23T08:34:39;26.67;;;22.92;;
36213;SDS011;37652;50.400;30.628;2023-03-23T08:36:42;32.13;;;23.58;;
36213;SDS011;37652;50.400;30.628;2023-03-23T08:38:44;28.48;;;23.60;;
36213;SDS011;37652;50.400;30.628;2023-03-23T08:40:45;32.05;;;23.88;;
36213;SDS011;37652;50.400;30.628;2023-03-23T08:42:47;31.48;;;23.30;;
36213;SDS011;37652;50.400;30.628;2023-03-23T08:44:49;27.92;;;22.48;;
36213;SDS011;37652;50.400;30.628;2023-03-23T08:46:49;31.98;;;24.38;;
36213;SDS011;37652;50.400;30.628;2023-03-23T08:48:54;32.65;;;23.63;;
36213;SDS011;37652;50.400;30.628;2023-03-23T08:50:55;32.17;;;23.45;;
36213;SDS011;37652;50.400;30.628;2023-03-23T08:52:56;32.65;;;23.70;;
36213;SDS011;37652;50.400;30.628;2023-03-23T08:54:57;34.47;;;23.17;;
36213;SDS011;37652;50.400;30.628;2023-03-23T08:57:01;33.22;;;24.50;;
36213;SDS011;37652;50.400;30.628;2023-03-23T08:59:02;26.92;;;20.80;;
36213;SDS011;37652;50.400;30.628;2023-03-23T09:01:03;33.40;;;23.60;;
36213;SDS011;37652;50.400;30.628;2023-03-23T09:03:06;27.80;;;23.65;;
36213;SDS011;37652;50.400;30.628;2023-03-23T09:05:07;26.88;;;22.40;;
36213;SDS011;37652;50.400;30.628;2023-03-23T09:07:10;31.27;;;24.30;;
36213;SDS011;37652;50.400;30.628;2023-03-23T09:09:13;31.10;;;24.08;;
36213;SDS011;37652;50.400;30.628;2023-03-23T09:11:14;31.55;;;22.90;;
36213;SDS011;37652;50.400;30.628;2023-03-23T09:13:15;31.98;;;22.95;;
36213;SDS011;37652;50.400;30.628;2023-03-23T09:15:17;32.95;;;23.90;;
36213;SDS011;37652;50.400;30.628;2023-03-23T09:17:17;30.20;;;23.42;;
36213;SDS011;37652;50.400;30.628;2023-03-23T09:19:18;32.92;;;24.67;;
36213;SDS011;37652;50.400;30.628;2023-03-23T09:21:20;30.63;;;23.70;;
36213;SDS011;37652;50.400;30.628;2023-03-23T09:23:21;26.95;;;22.52;;
36213;SDS011;37652;50.400;30.628;2023-03-23T09:25:24;32.17;;;23.48;;
36213;SDS011;37652;50.400;30.628;2023-03-23T09:27:27;29.77;;;23.88;;
36213;SDS011;37652;50.400;30.628;2023-03-23T09:29:28;30.42;;;22.05;;
36213;SDS011;37652;50.400;30.628;2023-03-23T09:31:29;28.83;;;21.70;;
36213;SDS011;37652;50.400;30.628;2023-03-23T09:33:31;27.50;;;22.13;;
36213;SDS011;37652;50.400;30.628;2023-03-23T09:35:36;27.42;;;21.90;;
36213;SDS011;37652;50.400;30.628;2023-03-23T09:37:38;28.13;;;21.73;;
36213;SDS011;37652;50.400;30.628;2023-03-23T09:39:40;27.05;;;21.88;;
36213;SDS011;37652;50.400;30.628;2023-03-23T09:44:05;27.85;;;23.20;;
36213;SDS011;37652;50.400;30.628;2023-03-23T09:48:59;28.10;;;21.00;;
36213;SDS011;37652;50.400;30.628;2023-03-23T09:51:07;31.20;;;22.35;;
36213;SDS011;37652;50.400;30.628;2023-03-23T09:53:29;26.35;;;22.75;;
36213;SDS011;37652;50.400;30.628;2023-03-23T09:55:39;26.02;;;20.30;;
36213;SDS011;37652;50.400;30.628;2023-03-23T09:59:49;32.63;;;20.27;;
36213;SDS011;37652;50.400;30.628;2023-03-23T10:01:57;25.83;;;20.92;;
36213;SDS011;37652;50.400;30.628;2023-03-23T10:04:19;27.45;;;19.17;;
36213;SDS011;37652;50.400;30.628;2023-03-23T10:06:30;27.23;;;19.73;;
36213;SDS011;37652;50.400;30.628;2023-03-23T10:08:30;24.88;;;19.75;;
36213;SDS011;37652;50.400;30.628;2023-03-23T10:13:01;25.92;;;20.48;;
36213;SDS011;37652;50.400;30.628;2023-03-23T10:15:25;27.55;;;21.08;;
36213;SDS011;37652;50.400;30.628;2023-03-23T10:17:30;28.90;;;19.30;;
36213;SDS011;37652;50.400;30.628;2023-03-23T10:20:28;26.40;;;19.33;;
36213;SDS011;37652;50.400;30.628;2023-03-23T10:22:12;24.38;;;18.45;;
36213;SDS011;37652;50.400;30.628;2023-03-23T10:24:18;26.20;;;20.13;;
36213;SDS011;37652;50.400;30.628;2023-03-23T10:28:51;22.90;;;18.05;;
36213;SDS011;37652;50.400;30.628;2023-03-23T10:31:14;22.30;;;18.10;;
36213;SDS011;37652;50.400;30.628;2023-03-23T10:33:41;21.50;;;16.58;;
36213;SDS011;37652;50.400;30.628;2023-03-23T10:36:07;23.92;;;18.15;;
36213;SDS011;37652;50.400;30.628;2023-03-23T10:38:23;23.42;;;16.60;;
36213;SDS011;37652;50.400;30.628;2023-03-23T10:40:30;19.50;;;16.08;;
36213;SDS011;37652;50.400;30.628;2023-03-23T10:42:35;21.40;;;16.13;;
36213;SDS011;37652;50.400;30.628;2023-03-23T10:44:38;22.50;;;16.30;;
36213;SDS011;37652;50.400;30.628;2023-03-23T10:48:58;18.42;;;14.35;;
36213;SDS011;37652;50.400;30.628;2023-03-23T10:51:02;20.50;;;14.93;;
36213;SDS011;37652;50.400;30.628;2023-03-23T10:53:43;17.85;;;15.48;;
36213;SDS011;37652;50.400;30.628;2023-03-23T10:55:37;15.45;;;13.40;;
36213;SDS011;37652;50.400;30.628;2023-03-23T10:57:41;18.27;;;14.68;;
36213;SDS011;37652;50.400;30.628;2023-03-23T10:59:46;17.00;;;14.70;;
36213;SDS011;37652;50.400;30.628;2023-03-23T11:01:51;18.25;;;13.73;;
36213;SDS011;37652;50.400;30.628;2023-03-23T11:03:54;16.83;;;14.18;;
36213;SDS011;37652;50.400;30.628;2023-03-23T11:05:57;16.10;;;13.30;;
36213;SDS011;37652;50.400;30.628;2023-03-23T11:08:01;17.48;;;12.85;;
36213;SDS011;37652;50.400;30.628;2023-03-23T11:12:16;16.80;;;13.32;;
36213;SDS011;37652;50.400;30.628;2023-03-23T11:16:29;19.48;;;13.13;;
36213;SDS011;37652;50.400;30.628;2023-03-23T11:18:39;17.75;;;13.02;;
36213;SDS011;37652;50.400;30.628;2023-03-23T11:20:43;14.43;;;12.80;;
36213;SDS011;37652;50.400;30.628;2023-03-23T11:22:48;17.65;;;12.35;;
36213;SDS011;37652;50.400;30.628;2023-03-23T11:24:52;17.65;;;13.38;;
36213;SDS011;37652;50.400;30.628;2023-03-23T11:26:55;15.00;;;13.40;;
36213;SDS011;37652;50.400;30.628;2023-03-23T11:29:12;14.45;;;12.95;;
36213;SDS011;37652;50.400;30.628;2023-03-23T11:31:32;14.43;;;12.48;;
36213;SDS011;37652;50.400;30.628;2023-03-23T11:33:38;15.73;;;14.13;;
36213;SDS011;37652;50.400;30.628;2023-03-23T11:36:00;14.10;;;12.45;;
36213;SDS011;37652;50.400;30.628;2023-03-23T11:38:02;14.50;;;12.60;;
36213;SDS011;37652;50.400;30.628;2023-03-23T11:42:12;14.23;;;11.27;;
36213;SDS011;37652;50.400;30.628;2023-03-23T11:44:22;13.00;;;11.40;;
36213;SDS011;37652;50.400;30.628;2023-03-23T11:46:33;13.27;;;11.88;;
36213;SDS011;37652;50.400;30.628;2023-03-23T11:53:33;13.05;;;11.27;;
36213;SDS011;37652;50.400;30.628;2023-03-23T11:57:45;14.18;;;11.52;;
36213;SDS011;37652;50.400;30.628;2023-03-23T11:59:45;15.25;;;11.57;;
36213;SDS011;37652;50.400;30.628;2023-03-23T12:09:07;14.32;;;10.88;;
36213;SDS011;37652;50.400;30.628;2023-03-23T12:16:19;14.15;;;11.30;;
36213;SDS011;37652;50.400;30.628;2023-03-23T12:21:14;13.13;;;11.50;;
36213;SDS011;37652;50.400;30.628;2023-03-23T12:23:29;17.13;;;12.30;;
36213;SDS011;37652;50.400;30.628;2023-03-23T12:37:34;16.08;;;11.80;;
36213;SDS011;37652;50.400;30.628;2023-03-23T12:42:43;15.75;;;11.23;;
36213;SDS011;37652;50.400;30.628;2023-03-23T12:44:47;15.32;;;12.60;;
36213;SDS011;37652;50.400;30.628;2023-03-23T12:58:26;17.00;;;11.80;;
36213;SDS011;37652;50.400;30.628;2023-03-23T13:00:32;15.75;;;11.98;;
36213;SDS011;37652;50.400;30.628;2023-03-23T13:07:44;15.43;;;11.82;;
36213;SDS011;37652;50.400;30.628;2023-03-23T13:12:04;16.30;;;12.95;;
36213;SDS011;37652;50.400;30.628;2023-03-23T13:14:32;20.00;;;13.05;;
36213;SDS011;37652;50.400;30.628;2023-03-23T13:19:03;17.80;;;13.50;;
36213;SDS011;37652;50.400;30.628;2023-03-23T13:26:06;13.70;;;12.00;;
36213;SDS011;37652;50.400;30.628;2023-03-23T13:27:59;16.13;;;12.50;;
36213;SDS011;37652;50.400;30.628;2023-03-23T13:30:01;17.08;;;12.15;;
36213;SDS011;37652;50.400;30.628;2023-03-23T13:32:50;17.33;;;12.25;;
36213;SDS011;37652;50.400;30.628;2023-03-23T13:34:39;17.27;;;13.15;;
36213;SDS011;37652;50.400;30.628;2023-03-23T13:36:56;16.27;;;12.90;;
36213;SDS011;37652;50.400;30.628;2023-03-23T13:38:58;16.92;;;13.20;;
36213;SDS011;37652;50.400;30.628;2023-03-23T13:41:07;20.45;;;12.43;;
36213;SDS011;37652;50.400;30.628;2023-03-23T13:43:11;15.10;;;12.30;;
36213;SDS011;37652;50.400;30.628;2023-03-23T13:47:27;16.08;;;11.30;;
36213;SDS011;37652;50.400;30.628;2023-03-23T13:49:44;14.63;;;11.23;;
36213;SDS011;37652;50.400;30.628;2023-03-23T13:52:06;15.88;;;12.60;;
36213;SDS011;37652;50.400;30.628;2023-03-23T13:58:44;13.43;;;11.13;;
36213;SDS011;37652;50.400;30.628;2023-03-23T14:00:47;15.75;;;11.40;;
36213;SDS011;37652;50.400;30.628;2023-03-23T14:02:51;14.50;;;11.95;;
36213;SDS011;37652;50.400;30.628;2023-03-23T14:05:08;12.75;;;10.65;;